Oldsmar, Florida
Current Conditions -  °F | °C
As of 8:55 AM on Saturday 25 Oct 2014 (Local Time) from KCLW Reporting Station
Clear Clear  
Wind Chill: 64°   Ceiling: Unl
Heat Index: 64°   Visibility: 10mi
Dew Point: 52°   Wind: 3mph
Humidity: 64%   Direction: 20°NNE
Pressure: 30"   Gusts: NA
Location:  28.04°N, 82.66°W
Report Text: KCLW 251255Z AUTO 02003KT 10SM CLR 18/11 A3000 RMK AO2
Loading
Personal Weather Stations






























Interactive Weather Map
Tropical Storm Tracking
New forecast layout! Learn more

10-Day Weather Forecast

Advertisements
Track Severe Weather on mobile